sensor_id;sensor_type;location;lat;lon;timestamp;pressure;altitude;pressure_sealevel;temperature;humidity
60583;BME280;46415;47.536;19.066;2023-03-16T00:01:21;100410.69;;;3.06;61.73
60583;BME280;46415;47.536;19.066;2023-03-16T00:04:23;100419.38;;;2.96;62.70
60583;BME280;46415;47.536;19.066;2023-03-16T00:07:26;100418.44;;;3.00;62.33
60583;BME280;46415;47.536;19.066;2023-03-16T00:10:29;100419.38;;;2.93;63.82
60583;BME280;46415;47.536;19.066;2023-03-16T00:13:32;100426.28;;;2.86;63.26
60583;BME280;46415;47.536;19.066;2023-03-16T00:16:35;100425.50;;;2.81;64.21
60583;BME280;46415;47.536;19.066;2023-03-16T00:19:38;100437.44;;;2.85;64.10
60583;BME280;46415;47.536;19.066;2023-03-16T00:22:41;100433.37;;;2.65;65.07
60583;BME280;46415;47.536;19.066;2023-03-16T00:25:44;100433.44;;;2.60;66.22
60583;BME280;46415;47.536;19.066;2023-03-16T00:28:47;100439.50;;;2.52;67.39
60583;BME280;46415;47.536;19.066;2023-03-16T00:31:49;100442.22;;;2.36;68.37
60583;BME280;46415;47.536;19.066;2023-03-16T00:34:54;100439.72;;;2.29;68.80
60583;BME280;46415;47.536;19.066;2023-03-16T00:37:57;100438.91;;;2.25;69.06
60583;BME280;46415;47.536;19.066;2023-03-16T00:41:02;100443.28;;;2.10;70.37
60583;BME280;46415;47.536;19.066;2023-03-16T00:44:07;100445.84;;;2.14;70.39
60583;BME280;46415;47.536;19.066;2023-03-16T00:47:11;100441.56;;;2.09;70.78
60583;BME280;46415;47.536;19.066;2023-03-16T00:50:17;100445.78;;;2.17;69.48
60583;BME280;46415;47.536;19.066;2023-03-16T00:53:24;100450.09;;;2.11;70.09
60583;BME280;46415;47.536;19.066;2023-03-16T00:56:27;100448.44;;;2.07;69.84
60583;BME280;46415;47.536;19.066;2023-03-16T00:59:30;100451.84;;;2.07;69.81
60583;BME280;46415;47.536;19.066;2023-03-16T01:02:33;100454.47;;;1.98;70.22
60583;BME280;46415;47.536;19.066;2023-03-16T01:05:39;100458.78;;;1.94;71.07
60583;BME280;46415;47.536;19.066;2023-03-16T01:08:43;100463.97;;;1.82;71.76
60583;BME280;46415;47.536;19.066;2023-03-16T01:11:46;100458.94;;;1.70;72.32
60583;BME280;46415;47.536;19.066;2023-03-16T01:14:52;100460.66;;;1.68;73.37
60583;BME280;46415;47.536;19.066;2023-03-16T01:17:57;100458.16;;;1.60;73.72
60583;BME280;46415;47.536;19.066;2023-03-16T01:21:02;100466.75;;;1.47;74.08
60583;BME280;46415;47.536;19.066;2023-03-16T01:24:08;100467.63;;;1.39;75.35
60583;BME280;46415;47.536;19.066;2023-03-16T01:27:11;100465.16;;;1.22;76.62
60583;BME280;46415;47.536;19.066;2023-03-16T01:30:15;100467.78;;;1.11;76.90
60583;BME280;46415;47.536;19.066;2023-03-16T01:33:22;100461.81;;;1.06;77.52
60583;BME280;46415;47.536;19.066;2023-03-16T01:36:25;100458.41;;;1.10;77.03
60583;BME280;46415;47.536;19.066;2023-03-16T01:39:28;100471.09;;;1.29;76.06
60583;BME280;46415;47.536;19.066;2023-03-16T01:42:32;100464.16;;;1.50;73.57
60583;BME280;46415;47.536;19.066;2023-03-16T01:52:31;100475.06;;;1.84;71.20
60583;BME280;46415;47.536;19.066;2023-03-16T01:55:35;100470.75;;;1.85;70.87
60583;BME280;46415;47.536;19.066;2023-03-16T01:58:41;100479.38;;;1.78;71.67
60583;BME280;46415;47.536;19.066;2023-03-16T02:01:46;100486.97;;;1.87;71.45
60583;BME280;46415;47.536;19.066;2023-03-16T02:04:54;100490.38;;;1.86;71.57
60583;BME280;46415;47.536;19.066;2023-03-16T02:08:00;100492.88;;;1.96;70.69
60583;BME280;46415;47.536;19.066;2023-03-16T02:11:05;100494.69;;;1.82;71.48
60583;BME280;46415;47.536;19.066;2023-03-16T02:14:11;100492.16;;;1.73;72.12
60583;BME280;46415;47.536;19.066;2023-03-16T02:17:17;100496.41;;;1.76;72.54
60583;BME280;46415;47.536;19.066;2023-03-16T02:24:02;100508.41;;;1.72;72.47
60583;BME280;46415;47.536;19.066;2023-03-16T02:27:08;100509.25;;;1.71;73.24
60583;BME280;46415;47.536;19.066;2023-03-16T02:30:15;100510.12;;;1.61;73.54
60583;BME280;46415;47.536;19.066;2023-03-16T02:33:19;100517.75;;;1.73;73.43
60583;BME280;46415;47.536;19.066;2023-03-16T02:36:24;100525.44;;;1.70;73.74
60583;BME280;46415;47.536;19.066;2023-03-16T02:39:27;100522.91;;;1.61;74.17
60583;BME280;46415;47.536;19.066;2023-03-16T02:42:30;100533.22;;;1.52;75.28
60583;BME280;46415;47.536;19.066;2023-03-16T02:45:38;100534.97;;;1.39;76.26
60583;BME280;46415;47.536;19.066;2023-03-16T02:48:48;100538.37;;;1.41;76.56
60583;BME280;46415;47.536;19.066;2023-03-16T02:51:54;100540.94;;;1.34;76.81
60583;BME280;46415;47.536;19.066;2023-03-16T02:54:59;100543.53;;;1.20;77.53
60583;BME280;46415;47.536;19.066;2023-03-16T02:58:02;100547.00;;;1.13;77.98
60583;BME280;46415;47.536;19.066;2023-03-16T03:01:05;100550.38;;;1.13;77.83
60583;BME280;46415;47.536;19.066;2023-03-16T03:04:08;100553.78;;;1.18;78.02
60583;BME280;46415;47.536;19.066;2023-03-16T03:07:12;100562.34;;;1.13;78.90
60583;BME280;46415;47.536;19.066;2023-03-16T03:10:17;100559.78;;;1.10;78.90
60583;BME280;46415;47.536;19.066;2023-03-16T03:13:22;100571.69;;;1.17;78.91
60583;BME280;46415;47.536;19.066;2023-03-16T03:16:25;100570.00;;;1.19;78.73
60583;BME280;46415;47.536;19.066;2023-03-16T03:19:28;100581.88;;;1.21;78.80
60583;BME280;46415;47.536;19.066;2023-03-16T03:22:31;100575.06;;;1.30;79.58
60583;BME280;46415;47.536;19.066;2023-03-16T03:25:35;100576.81;;;1.18;79.42
60583;BME280;46415;47.536;19.066;2023-03-16T03:28:38;100587.81;;;1.34;78.71
60583;BME280;46415;47.536;19.066;2023-03-16T03:31:41;100588.69;;;1.29;79.07
60583;BME280;46415;47.536;19.066;2023-03-16T03:34:45;100593.78;;;1.35;78.71
60583;BME280;46415;47.536;19.066;2023-03-16T03:37:49;100596.31;;;1.44;78.50
60583;BME280;46415;47.536;19.066;2023-03-16T03:40:53;100602.31;;;1.37;79.17
60583;BME280;46415;47.536;19.066;2023-03-16T03:44:03;100601.44;;;1.39;78.73
60583;BME280;46415;47.536;19.066;2023-03-16T03:47:07;100602.28;;;1.49;78.42
60583;BME280;46415;47.536;19.066;2023-03-16T03:50:12;100609.97;;;1.41;78.61
60583;BME280;46415;47.536;19.066;2023-03-16T03:53:17;100610.84;;;1.33;78.80
60583;BME280;46415;47.536;19.066;2023-03-16T03:56:22;100615.09;;;1.32;79.09
60583;BME280;46415;47.536;19.066;2023-03-16T03:59:24;100619.38;;;1.27;79.65
60583;BME280;46415;47.536;19.066;2023-03-16T04:02:30;100621.94;;;1.19;80.43
60583;BME280;46415;47.536;19.066;2023-03-16T04:05:33;100629.63;;;1.06;81.10
60583;BME280;46415;47.536;19.066;2023-03-16T04:08:36;100624.53;;;1.04;81.30
60583;BME280;46415;47.536;19.066;2023-03-16T04:11:42;100626.22;;;1.05;81.34
60583;BME280;46415;47.536;19.066;2023-03-16T04:14:45;100635.59;;;1.02;81.48
60583;BME280;46415;47.536;19.066;2023-03-16T04:17:50;100632.22;;;0.95;82.18
60583;BME280;46415;47.536;19.066;2023-03-16T04:20:54;100636.44;;;1.08;81.60
60583;BME280;46415;47.536;19.066;2023-03-16T04:23:58;100636.44;;;1.02;81.75
60583;BME280;46415;47.536;19.066;2023-03-16T04:27:03;100640.72;;;1.05;81.78
60583;BME280;46415;47.536;19.066;2023-03-16T04:30:12;100645.81;;;1.05;81.51
60583;BME280;46415;47.536;19.066;2023-03-16T04:33:16;100646.69;;;0.93;82.78
60583;BME280;46415;47.536;19.066;2023-03-16T04:36:20;100648.38;;;0.93;82.42
60583;BME280;46415;47.536;19.066;2023-03-16T04:39:25;100649.22;;;1.16;81.02
60583;BME280;46415;47.536;19.066;2023-03-16T04:42:28;100656.03;;;1.14;81.18
60583;BME280;46415;47.536;19.066;2023-03-16T04:45:31;100652.62;;;1.15;81.03
60583;BME280;46415;47.536;19.066;2023-03-16T04:48:35;100655.16;;;1.30;79.64
60583;BME280;46415;47.536;19.066;2023-03-16T04:51:38;100663.69;;;1.34;78.51
60583;BME280;46415;47.536;19.066;2023-03-16T04:54:44;100661.13;;;1.31;77.79
60583;BME280;46415;47.536;19.066;2023-03-16T04:57:49;100673.06;;;1.42;77.11
60583;BME280;46415;47.536;19.066;2023-03-16T05:00:54;100677.31;;;1.42;76.98
60583;BME280;46415;47.536;19.066;2023-03-16T05:03:57;100670.47;;;1.39;77.27
60583;BME280;46415;47.536;19.066;2023-03-16T05:07:02;100684.97;;;1.39;77.50
60583;BME280;46415;47.536;19.066;2023-03-16T05:10:10;100679.88;;;1.42;77.72
60583;BME280;46415;47.536;19.066;2023-03-16T05:13:14;100685.84;;;1.35;78.03
60583;BME280;46415;47.536;19.066;2023-03-16T05:16:18;100690.94;;;1.42;77.60
60583;BME280;46415;47.536;19.066;2023-03-16T05:19:21;100698.59;;;1.45;77.40
60583;BME280;46415;47.536;19.066;2023-03-16T05:22:25;100693.47;;;1.50;76.85
60583;BME280;46415;47.536;19.066;2023-03-16T05:25:30;100687.47;;;1.71;75.77
60583;BME280;46415;47.536;19.066;2023-03-16T05:28:35;100700.25;;;1.71;76.09
60583;BME280;46415;47.536;19.066;2023-03-16T05:31:39;100702.81;;;1.75;75.77
60583;BME280;46415;47.536;19.066;2023-03-16T05:34:42;100707.06;;;1.78;75.82
60583;BME280;46415;47.536;19.066;2023-03-16T05:37:45;100708.72;;;1.92;74.10
60583;BME280;46415;47.536;19.066;2023-03-16T05:40:49;100707.00;;;2.00;73.67
60583;BME280;46415;47.536;19.066;2023-03-16T05:43:57;100711.22;;;2.12;73.30
60583;BME280;46415;47.536;19.066;2023-03-16T05:47:00;100714.59;;;2.16;72.76
60583;BME280;46415;47.536;19.066;2023-03-16T05:50:05;100717.19;;;2.14;73.32
60583;BME280;46415;47.536;19.066;2023-03-16T05:53:09;100717.12;;;2.22;73.58
60583;BME280;46415;47.536;19.066;2023-03-16T05:56:12;100721.41;;;2.26;72.23
60583;BME280;46415;47.536;19.066;2023-03-16T05:59:15;100723.06;;;2.34;72.52
60583;BME280;46415;47.536;19.066;2023-03-16T06:02:23;100726.41;;;2.50;71.45
60583;BME280;46415;47.536;19.066;2023-03-16T06:05:27;100738.25;;;2.71;70.17
60583;BME280;46415;47.536;19.066;2023-03-16T06:08:31;100739.94;;;2.70;70.85
60583;BME280;46415;47.536;19.066;2023-03-16T06:11:35;100739.03;;;2.83;70.62
60583;BME280;46415;47.536;19.066;2023-03-16T06:14:38;100744.06;;;2.94;69.79
60583;BME280;46415;47.536;19.066;2023-03-16T06:17:42;100749.16;;;3.00;69.20
60583;BME280;46415;47.536;19.066;2023-03-16T06:20:45;100746.53;;;3.09;69.03
60583;BME280;46415;47.536;19.066;2023-03-16T06:23:49;100749.84;;;3.22;68.76
60583;BME280;46415;47.536;19.066;2023-03-16T06:26:53;100757.28;;;3.52;68.33
60583;BME280;46415;47.536;19.066;2023-03-16T06:29:56;100764.94;;;3.61;66.61
60583;BME280;46415;47.536;19.066;2023-03-16T06:32:59;100762.28;;;3.69;65.64
60583;BME280;46415;47.536;19.066;2023-03-16T06:36:04;100771.53;;;3.87;64.68
60583;BME280;46415;47.536;19.066;2023-03-16T06:39:07;100782.53;;;3.98;63.00
60583;BME280;46415;47.536;19.066;2023-03-16T06:42:12;100780.56;;;4.23;61.38
60583;BME280;46415;47.536;19.066;2023-03-16T06:45:14;100792.44;;;4.30;61.06
60583;BME280;46415;47.536;19.066;2023-03-16T06:48:19;100785.59;;;4.30;60.62
60583;BME280;46415;47.536;19.066;2023-03-16T06:51:22;100794.06;;;4.38;60.37
60583;BME280;46415;47.536;19.066;2023-03-16T06:54:26;100799.06;;;4.52;59.30
60583;BME280;46415;47.536;19.066;2023-03-16T06:57:29;100800.72;;;4.56;60.51
60583;BME280;46415;47.536;19.066;2023-03-16T07:00:32;100805.00;;;4.54;59.52
60583;BME280;46415;47.536;19.066;2023-03-16T07:03:35;100801.41;;;4.67;59.14
60583;BME280;46415;47.536;19.066;2023-03-16T07:06:39;100806.56;;;4.69;58.24
60583;BME280;46415;47.536;19.066;2023-03-16T07:09:42;100818.25;;;4.89;58.80
60583;BME280;46415;47.536;19.066;2023-03-16T07:12:47;100821.66;;;4.93;58.32
60583;BME280;46415;47.536;19.066;2023-03-16T07:15:50;100825.12;;;4.90;57.97
60583;BME280;46415;47.536;19.066;2023-03-16T07:18:56;100823.06;;;5.14;58.25
60583;BME280;46415;47.536;19.066;2023-03-16T07:21:59;100825.69;;;5.11;57.95
60583;BME280;46415;47.536;19.066;2023-03-16T07:25:06;100826.28;;;5.29;56.65
60583;BME280;46415;47.536;19.066;2023-03-16T07:28:09;100836.59;;;5.29;57.20
60583;BME280;46415;47.536;19.066;2023-03-16T07:31:13;100833.75;;;5.48;56.37
60583;BME280;46415;47.536;19.066;2023-03-16T07:34:16;100845.59;;;5.56;57.17
60583;BME280;46415;47.536;19.066;2023-03-16T07:37:20;100840.06;;;5.81;55.80
60583;BME280;46415;47.536;19.066;2023-03-16T07:40:28;100840.03;;;5.84;55.66
60583;BME280;46415;47.536;19.066;2023-03-16T07:43:33;100844.19;;;5.92;55.06
60583;BME280;46415;47.536;19.066;2023-03-16T07:46:36;100841.00;;;5.77;55.37
60583;BME280;46415;47.536;19.066;2023-03-16T07:49:39;100847.69;;;5.88;54.84
60583;BME280;46415;47.536;19.066;2023-03-16T07:52:44;100841.59;;;5.92;54.76
60583;BME280;46415;47.536;19.066;2023-03-16T07:55:48;100842.44;;;5.94;53.66
60583;BME280;46415;47.536;19.066;2023-03-16T07:58:52;100838.91;;;6.00;54.36
60583;BME280;46415;47.536;19.066;2023-03-16T08:01:55;100846.50;;;6.07;54.04
60583;BME280;46415;47.536;19.066;2023-03-16T08:04:58;100841.16;;;6.17;53.73
60583;BME280;46415;47.536;19.066;2023-03-16T08:08:01;100847.06;;;6.23;53.94
60583;BME280;46415;47.536;19.066;2023-03-16T08:11:05;100860.47;;;6.42;53.80
60583;BME280;46415;47.536;19.066;2023-03-16T08:14:08;100861.25;;;6.45;52.18
60583;BME280;46415;47.536;19.066;2023-03-16T08:17:13;100859.63;;;6.40;52.38
60583;BME280;46415;47.536;19.066;2023-03-16T08:20:16;100863.63;;;6.56;52.71
60583;BME280;46415;47.536;19.066;2023-03-16T08:23:22;100869.03;;;6.87;51.16
60583;BME280;46415;47.536;19.066;2023-03-16T08:26:25;100881.88;;;6.90;50.19
60583;BME280;46415;47.536;19.066;2023-03-16T08:29:29;100876.72;;;6.90;51.67
60583;BME280;46415;47.536;19.066;2023-03-16T08:32:32;100872.44;;;6.87;50.21
60583;BME280;46415;47.536;19.066;2023-03-16T08:35:35;100873.94;;;6.97;50.09
60583;BME280;46415;47.536;19.066;2023-03-16T08:38:38;100880.28;;;7.24;49.63
60583;BME280;46415;47.536;19.066;2023-03-16T08:41:42;100873.88;;;7.02;48.72
60583;BME280;46415;47.536;19.066;2023-03-16T08:44:50;100873.56;;;7.16;48.36
60583;BME280;46415;47.536;19.066;2023-03-16T08:47:57;100874.34;;;7.19;47.41
60583;BME280;46415;47.536;19.066;2023-03-16T08:51:04;100878.06;;;7.08;47.22
60583;BME280;46415;47.536;19.066;2023-03-16T08:54:07;100887.13;;;7.25;47.80
60583;BME280;46415;47.536;19.066;2023-03-16T08:57:10;100886.16;;;7.31;46.47
60583;BME280;46415;47.536;19.066;2023-03-16T09:00:14;100878.91;;;7.45;46.00
60583;BME280;46415;47.536;19.066;2023-03-16T09:03:16;100887.66;;;7.39;48.53
60583;BME280;46415;47.536;19.066;2023-03-16T09:06:19;100888.69;;;7.32;46.66
60583;BME280;46415;47.536;19.066;2023-03-16T09:09:24;100892.19;;;7.68;46.65
60583;BME280;46415;47.536;19.066;2023-03-16T09:12:27;100891.88;;;7.80;44.98
60583;BME280;46415;47.536;19.066;2023-03-16T09:15:29;100900.81;;;7.67;45.80
60583;BME280;46415;47.536;19.066;2023-03-16T09:18:33;100899.59;;;7.82;45.70
60583;BME280;46415;47.536;19.066;2023-03-16T09:21:36;100904.41;;;7.97;45.65
60583;BME280;46415;47.536;19.066;2023-03-16T09:24:40;100903.41;;;7.67;45.33
60583;BME280;46415;47.536;19.066;2023-03-16T09:27:43;100908.44;;;7.72;46.65
60583;BME280;46415;47.536;19.066;2023-03-16T09:30:46;100909.56;;;7.97;46.43
60583;BME280;46415;47.536;19.066;2023-03-16T09:33:49;100903.09;;;8.15;45.20
60583;BME280;46415;47.536;19.066;2023-03-16T09:36:52;100914.47;;;8.08;44.73
60583;BME280;46415;47.536;19.066;2023-03-16T09:39:56;100904.56;;;7.91;45.36
60583;BME280;46415;47.536;19.066;2023-03-16T09:46:31;100896.28;;;8.11;44.97
60583;BME280;46415;47.536;19.066;2023-03-16T09:49:45;100898.28;;;8.35;45.10
60583;BME280;46415;47.536;19.066;2023-03-16T09:56:35;100912.03;;;8.02;40.96
60583;BME280;46415;47.536;19.066;2023-03-16T09:59:39;100910.28;;;8.04;40.93
60583;BME280;46415;47.536;19.066;2023-03-16T10:06:08;100917.50;;;8.24;40.42
60583;BME280;46415;47.536;19.066;2023-03-16T10:09:44;100914.13;;;8.22;40.39
60583;BME280;46415;47.536;19.066;2023-03-16T10:12:51;100924.06;;;8.38;39.63
60583;BME280;46415;47.536;19.066;2023-03-16T10:15:56;100920.63;;;8.38;39.11
60583;BME280;46415;47.536;19.066;2023-03-16T10:22:29;100921.78;;;8.58;40.23
60583;BME280;46415;47.536;19.066;2023-03-16T10:25:58;100913.97;;;8.92;39.17
60583;BME280;46415;47.536;19.066;2023-03-16T10:29:02;100927.00;;;8.89;37.97
60583;BME280;46415;47.536;19.066;2023-03-16T10:32:15;100915.41;;;9.02;38.19
60583;BME280;46415;47.536;19.066;2023-03-16T10:41:44;100929.69;;;9.16;37.56
60583;BME280;46415;47.536;19.066;2023-03-16T10:44:48;100922.00;;;9.13;37.31
60583;BME280;46415;47.536;19.066;2023-03-16T10:47:52;100915.72;;;9.49;36.64
60583;BME280;46415;47.536;19.066;2023-03-16T10:50:56;100914.03;;;9.76;36.37
60583;BME280;46415;47.536;19.066;2023-03-16T10:54:14;100909.31;;;9.89;35.62
60583;BME280;46415;47.536;19.066;2023-03-16T10:57:35;100906.16;;;9.79;35.98
60583;BME280;46415;47.536;19.066;2023-03-16T11:00:41;100901.28;;;9.96;35.65
60583;BME280;46415;47.536;19.066;2023-03-16T11:03:52;100907.09;;;10.31;35.46
60583;BME280;46415;47.536;19.066;2023-03-16T11:06:57;100901.91;;;10.31;34.59
60583;BME280;46415;47.536;19.066;2023-03-16T11:10:00;100904.47;;;10.55;35.02
60583;BME280;46415;47.536;19.066;2023-03-16T11:19:23;100908.25;;;10.72;32.75
60583;BME280;46415;47.536;19.066;2023-03-16T11:22:28;100908.34;;;10.44;32.76
60583;BME280;46415;47.536;19.066;2023-03-16T11:25:37;100901.87;;;10.55;32.79
60583;BME280;46415;47.536;19.066;2023-03-16T11:28:48;100902.25;;;10.45;32.85
60583;BME280;46415;47.536;19.066;2023-03-16T11:32:21;100896.62;;;10.82;32.45
60583;BME280;46415;47.536;19.066;2023-03-16T11:39:19;100889.03;;;11.22;31.78
60583;BME280;46415;47.536;19.066;2023-03-16T11:42:32;100884.59;;;11.48;31.31
60583;BME280;46415;47.536;19.066;2023-03-16T11:53:10;100880.75;;;10.89;30.64
60583;BME280;46415;47.536;19.066;2023-03-16T11:56:33;100876.97;;;10.75;30.70
60583;BME280;46415;47.536;19.066;2023-03-16T12:10:32;100865.78;;;10.73;28.76
60583;BME280;46415;47.536;19.066;2023-03-16T12:17:02;100859.75;;;10.95;27.20
60583;BME280;46415;47.536;19.066;2023-03-16T12:20:16;100859.31;;;11.08;27.68
60583;BME280;46415;47.536;19.066;2023-03-16T12:23:39;100859.16;;;11.11;26.48
60583;BME280;46415;47.536;19.066;2023-03-16T12:26:44;100860.16;;;11.08;25.40
60583;BME280;46415;47.536;19.066;2023-03-16T12:29:57;100860.19;;;11.07;24.69
60583;BME280;46415;47.536;19.066;2023-03-16T12:33:20;100853.47;;;11.24;23.99
60583;BME280;46415;47.536;19.066;2023-03-16T12:40:02;100850.81;;;11.26;24.53
60583;BME280;46415;47.536;19.066;2023-03-16T12:47:08;100862.44;;;11.16;25.39
60583;BME280;46415;47.536;19.066;2023-03-16T12:50:18;100864.84;;;11.20;25.13
60583;BME280;46415;47.536;19.066;2023-03-16T12:56:47;100851.72;;;11.25;24.02
60583;BME280;46415;47.536;19.066;2023-03-16T12:59:56;100862.69;;;11.53;24.44
60583;BME280;46415;47.536;19.066;2023-03-16T13:03:01;100859.22;;;11.76;24.71
60583;BME280;46415;47.536;19.066;2023-03-16T13:06:06;100861.06;;;11.72;23.31
60583;BME280;46415;47.536;19.066;2023-03-16T13:09:24;100860.94;;;11.54;23.65
60583;BME280;46415;47.536;19.066;2023-03-16T13:12:31;100859.88;;;11.59;23.43
60583;BME280;46415;47.536;19.066;2023-03-16T13:15:38;100858.88;;;11.40;23.52
60583;BME280;46415;47.536;19.066;2023-03-16T13:18:41;100853.81;;;10.92;23.05
60583;BME280;46415;47.536;19.066;2023-03-16T13:21:47;100859.94;;;11.36;24.24
60583;BME280;46415;47.536;19.066;2023-03-16T13:28:14;100850.25;;;11.18;22.68
60583;BME280;46415;47.536;19.066;2023-03-16T13:31:24;100856.53;;;11.12;22.71
60583;BME280;46415;47.536;19.066;2023-03-16T13:34:38;100853.41;;;11.26;23.03
60583;BME280;46415;47.536;19.066;2023-03-16T13:37:48;100857.84;;;11.44;22.73
60583;BME280;46415;47.536;19.066;2023-03-16T13:40:53;100862.28;;;11.64;22.50
60583;BME280;46415;47.536;19.066;2023-03-16T13:43:57;100858.34;;;11.75;22.53
60583;BME280;46415;47.536;19.066;2023-03-16T13:47:04;100860.00;;;11.78;22.17
60583;BME280;46415;47.536;19.066;2023-03-16T13:50:12;100864.37;;;12.18;22.48
60583;BME280;46415;47.536;19.066;2023-03-16T13:53:38;100853.38;;;12.11;22.70
60583;BME280;46415;47.536;19.066;2023-03-16T13:56:41;100846.34;;;11.93;22.67
60583;BME280;46415;47.536;19.066;2023-03-16T13:59:44;100853.69;;;12.04;22.51
60583;BME280;46415;47.536;19.066;2023-03-16T14:02:53;100858.81;;;11.63;22.51
60583;BME280;46415;47.536;19.066;2023-03-16T14:05:57;100857.66;;;11.70;22.93
60583;BME280;46415;47.536;19.066;2023-03-16T14:09:01;100855.72;;;11.77;22.74
60583;BME280;46415;47.536;19.066;2023-03-16T14:12:12;100854.09;;;11.95;22.53
60583;BME280;46415;47.536;19.066;2023-03-16T14:15:19;100857.84;;;12.09;22.53
60583;BME280;46415;47.536;19.066;2023-03-16T14:18:31;100849.94;;;12.31;22.25
60583;BME280;46415;47.536;19.066;2023-03-16T14:21:36;100855.94;;;12.72;21.97
60583;BME280;46415;47.536;19.066;2023-03-16T14:24:40;100859.78;;;13.21;19.25
60583;BME280;46415;47.536;19.066;2023-03-16T14:27:44;100856.31;;;13.93;17.97
60583;BME280;46415;47.536;19.066;2023-03-16T14:31:01;100858.94;;;14.77;17.41
60583;BME280;46415;47.536;19.066;2023-03-16T14:34:17;100852.00;;;14.43;17.56
60583;BME280;46415;47.536;19.066;2023-03-16T14:37:20;100860.00;;;14.23;17.89
60583;BME280;46415;47.536;19.066;2023-03-16T14:40:29;100858.62;;;14.16;18.17
60583;BME280;46415;47.536;19.066;2023-03-16T14:43:35;100860.22;;;15.01;18.31
60583;BME280;46415;47.536;19.066;2023-03-16T14:46:41;100868.06;;;16.24;18.02
60583;BME280;46415;47.536;19.066;2023-03-16T14:49:44;100867.25;;;16.52;18.11
60583;BME280;46415;47.536;19.066;2023-03-16T14:52:47;100873.44;;;15.14;19.25
60583;BME280;46415;47.536;19.066;2023-03-16T14:55:50;100876.38;;;16.16;18.89
60583;BME280;46415;47.536;19.066;2023-03-16T14:58:53;100878.09;;;17.17;18.02
60583;BME280;46415;47.536;19.066;2023-03-16T15:01:57;100888.59;;;17.31;17.21
60583;BME280;46415;47.536;19.066;2023-03-16T15:05:01;100875.56;;;17.70;16.58
60583;BME280;46415;47.536;19.066;2023-03-16T15:08:06;100880.19;;;19.07;15.79
60583;BME280;46415;47.536;19.066;2023-03-16T15:11:13;100883.34;;;19.73;15.09
60583;BME280;46415;47.536;19.066;2023-03-16T15:14:16;100875.75;;;20.27;14.48
60583;BME280;46415;47.536;19.066;2023-03-16T15:17:39;100878.44;;;20.38;14.63
60583;BME280;46415;47.536;19.066;2023-03-16T15:20:42;100881.72;;;18.86;14.67
60583;BME280;46415;47.536;19.066;2023-03-16T15:23:47;100883.50;;;18.60;15.00
60583;BME280;46415;47.536;19.066;2023-03-16T15:26:53;100888.41;;;18.27;15.02
60583;BME280;46415;47.536;19.066;2023-03-16T15:29:56;100887.56;;;18.26;15.36
60583;BME280;46415;47.536;19.066;2023-03-16T15:33:00;100883.97;;;19.16;14.89
60583;BME280;46415;47.536;19.066;2023-03-16T15:36:17;100893.19;;;19.71;14.06
60583;BME280;46415;47.536;19.066;2023-03-16T15:39:23;100896.25;;;19.88;14.06
60583;BME280;46415;47.536;19.066;2023-03-16T15:42:26;100907.50;;;20.83;13.90
60583;BME280;46415;47.536;19.066;2023-03-16T15:45:29;100897.91;;;21.04;12.92
60583;BME280;46415;47.536;19.066;2023-03-16T15:48:32;100901.75;;;20.77;13.32
60583;BME280;46415;47.536;19.066;2023-03-16T15:51:36;100907.94;;;19.84;13.86
60583;BME280;46415;47.536;19.066;2023-03-16T15:54:38;100910.81;;;19.58;13.97
60583;BME280;46415;47.536;19.066;2023-03-16T15:57:41;100905.78;;;19.42;13.81
60583;BME280;46415;47.536;19.066;2023-03-16T16:00:45;100907.22;;;18.21;14.41
60583;BME280;46415;47.536;19.066;2023-03-16T16:03:49;100925.63;;;16.10;15.64
60583;BME280;46415;47.536;19.066;2023-03-16T16:06:54;100920.38;;;14.51;16.92
60583;BME280;46415;47.536;19.066;2023-03-16T16:09:58;100918.87;;;13.21;18.61
60583;BME280;46415;47.536;19.066;2023-03-16T16:13:02;100930.56;;;11.91;19.94
60583;BME280;46415;47.536;19.066;2023-03-16T16:16:09;100928.34;;;10.90;21.13
60583;BME280;46415;47.536;19.066;2023-03-16T16:19:14;100930.59;;;10.51;21.36
60583;BME280;46415;47.536;19.066;2023-03-16T16:22:17;100938.37;;;9.98;21.66
60583;BME280;46415;47.536;19.066;2023-03-16T16:25:21;100942.13;;;9.62;22.06
60583;BME280;46415;47.536;19.066;2023-03-16T16:28:29;100945.09;;;9.20;22.80
60583;BME280;46415;47.536;19.066;2023-03-16T16:31:33;100957.50;;;9.09;22.94
60583;BME280;46415;47.536;19.066;2023-03-16T16:34:36;100962.50;;;8.84;22.87
60583;BME280;46415;47.536;19.066;2023-03-16T16:37:38;100963.03;;;8.65;23.29
60583;BME280;46415;47.536;19.066;2023-03-16T16:40:42;100962.25;;;8.63;23.18
60583;BME280;46415;47.536;19.066;2023-03-16T16:43:47;100970.66;;;8.37;23.80
60583;BME280;46415;47.536;19.066;2023-03-16T16:46:51;100975.34;;;8.21;24.10
60583;BME280;46415;47.536;19.066;2023-03-16T16:49:54;100974.84;;;8.05;24.83
60583;BME280;46415;47.536;19.066;2023-03-16T16:52:58;100982.09;;;7.90;24.71
60583;BME280;46415;47.536;19.066;2023-03-16T16:56:00;100985.47;;;7.93;25.14
60583;BME280;46415;47.536;19.066;2023-03-16T16:59:24;100980.66;;;7.78;25.59
60583;BME280;46415;47.536;19.066;2023-03-16T17:02:39;100991.53;;;7.52;25.60
60583;BME280;46415;47.536;19.066;2023-03-16T17:05:44;100993.41;;;7.46;26.80
60583;BME280;46415;47.536;19.066;2023-03-16T17:08:47;100996.47;;;7.23;26.57
60583;BME280;46415;47.536;19.066;2023-03-16T17:11:57;101000.22;;;7.08;26.94
60583;BME280;46415;47.536;19.066;2023-03-16T17:15:00;101002.06;;;7.02;28.00
60583;BME280;46415;47.536;19.066;2023-03-16T17:18:12;101005.81;;;6.84;28.90
60583;BME280;46415;47.536;19.066;2023-03-16T17:21:20;101013.91;;;6.64;29.65
60583;BME280;46415;47.536;19.066;2023-03-16T17:24:25;101011.53;;;6.52;30.29